SIA509 VOBL-WSSS
Flight info
| Callsign | SIA509 |
|---|---|
| Flight time | N/A |
| Altitude | 41000 |
| Route | TULNA7B TULNA W116 MMV P761 IDASO N571 GUNIP R467 VKL A464 ARAMA ARAMA1A |
| Aircraft | A359/H-SDE2E3GHIJ3J4J5LM1ORWXY/LB1D1 |
Departure
| Time | 2026-04-30 12:06 |
|---|---|
| Airport | Kempegowda International Airport Bengaluru (VOBL) |
Arrival
| Time | N/A |
|---|---|
| Airport | Singapore Changi Airport (WSSS) |
| Time | Latitude | Longitude | Altitude | Speed | Heading |
|---|---|---|---|---|---|
| 2026-04-30 11:36 | 13.20183 | 77.70838 | 3017 ft | 0 kts | 180° |
| 2026-04-30 11:51 | 13.20201 | 77.70838 | 3020 ft | 3 kts | 180° |
| 2026-04-30 11:51 | 13.20222 | 77.70838 | 3023 ft | 3 kts | 180° |
| 2026-04-30 11:52 | 13.20242 | 77.70838 | 3024 ft | 3 kts | 161° |
| 2026-04-30 11:52 | 13.20259 | 77.70828 | 3022 ft | 3 kts | 126° |
| 2026-04-30 11:52 | 13.20264 | 77.70809 | 3024 ft | 3 kts | 91° |
| 2026-04-30 11:52 | 13.20264 | 77.70808 | 3023 ft | 0 kts | 91° |
| 2026-04-30 11:56 | 13.20264 | 77.70851 | 3017 ft | 14 kts | 91° |
| 2026-04-30 11:56 | 13.20263 | 77.70915 | 3017 ft | 9 kts | 90° |
| 2026-04-30 11:57 | 13.20263 | 77.70983 | 3017 ft | 10 kts | 90° |
| 2026-04-30 11:57 | 13.20263 | 77.71061 | 3017 ft | 12 kts | 89° |
| 2026-04-30 11:57 | 13.20261 | 77.71149 | 3017 ft | 13 kts | 89° |
| 2026-04-30 11:57 | 13.20263 | 77.71229 | 3017 ft | 8 kts | 79° |
| 2026-04-30 11:58 | 13.20299 | 77.71272 | 3017 ft | 8 kts | 21° |
| 2026-04-30 11:58 | 13.20357 | 77.71275 | 3017 ft | 9 kts | 1° |
| 2026-04-30 11:58 | 13.20426 | 77.71276 | 3017 ft | 10 kts | 1° |
| 2026-04-30 11:58 | 13.20498 | 77.71290 | 3017 ft | 11 kts | 32° |
| 2026-04-30 11:59 | 13.20522 | 77.71359 | 3017 ft | 11 kts | 87° |
| 2026-04-30 11:59 | 13.20524 | 77.71443 | 3017 ft | 12 kts | 90° |
| 2026-04-30 11:59 | 13.20524 | 77.71536 | 3018 ft | 13 kts | 90° |
| 2026-04-30 11:59 | 13.20522 | 77.71635 | 3018 ft | 14 kts | 91° |
| 2026-04-30 12:00 | 13.20521 | 77.71741 | 3018 ft | 15 kts | 90° |
| 2026-04-30 12:00 | 13.20520 | 77.71855 | 3018 ft | 17 kts | 90° |
| 2026-04-30 12:00 | 13.20519 | 77.71979 | 3018 ft | 18 kts | 90° |
| 2026-04-30 12:00 | 13.20519 | 77.72109 | 3018 ft | 19 kts | 90° |
| 2026-04-30 12:01 | 13.20521 | 77.72236 | 3018 ft | 14 kts | 83° |
| 2026-04-30 12:01 | 13.20552 | 77.72283 | 3018 ft | 6 kts | 17° |
| 2026-04-30 12:01 | 13.20568 | 77.72284 | 3018 ft | 0 kts | 3° |
| 2026-04-30 12:03 | 13.20683 | 77.72236 | 3018 ft | 11 kts | 302° |
| 2026-04-30 12:03 | 13.20689 | 77.72165 | 3018 ft | 0 kts | 270° |
| 2026-04-30 12:04 | 13.20689 | 77.72163 | 3018 ft | 3 kts | 271° |
| 2026-04-30 12:05 | 13.20690 | 77.72060 | 3017 ft | 26 kts | 270° |
| 2026-04-30 12:05 | 13.20692 | 77.71789 | 3018 ft | 58 kts | 270° |
| 2026-04-30 12:05 | 13.20697 | 77.71189 | 3018 ft | 109 kts | 271° |
| 2026-04-30 12:05 | 13.20705 | 77.70238 | 3018 ft | 151 kts | 270° |
| 2026-04-30 12:06 | 13.20701 | 77.69042 | 3061 ft | 182 kts | 266° |
| 2026-04-30 12:06 | 13.20551 | 77.67815 | 3607 ft | 179 kts | 255° |
| 2026-04-30 12:06 | 13.20446 | 77.66474 | 3760 ft | 199 kts | 284° |
| 2026-04-30 12:06 | 13.21209 | 77.65223 | 3993 ft | 222 kts | 316° |
| 2026-04-30 12:07 | 13.22391 | 77.64087 | 4314 ft | 242 kts | 313° |
| 2026-04-30 12:07 | 13.23528 | 77.62741 | 4799 ft | 256 kts | 307° |
| 2026-04-30 12:07 | 13.24604 | 77.61246 | 5411 ft | 263 kts | 308° |
| 2026-04-30 12:07 | 13.25941 | 77.59952 | 6040 ft | 268 kts | 325° |
| 2026-04-30 12:08 | 13.27677 | 77.59258 | 6696 ft | 272 kts | 351° |
| 2026-04-30 12:08 | 13.29556 | 77.59464 | 7352 ft | 277 kts | 19° |
| 2026-04-30 12:08 | 13.31123 | 77.60592 | 8021 ft | 282 kts | 48° |
| 2026-04-30 12:08 | 13.31982 | 77.62394 | 8749 ft | 286 kts | 77° |
| 2026-04-30 12:09 | 13.31918 | 77.64427 | 9594 ft | 287 kts | 101° |
| 2026-04-30 12:09 | 13.31401 | 77.66415 | 10354 ft | 292 kts | 103° |
| 2026-04-30 12:09 | 13.30860 | 77.68491 | 10735 ft | 310 kts | 102° |
| 2026-04-30 12:09 | 13.30801 | 77.68725 | 10769 ft | 312 kts | 102° |
| 2026-04-30 12:10 | 13.30780 | 77.68806 | 10773 ft | 312 kts | 102° |
| 2026-04-30 12:10 | 13.30503 | 77.69891 | 10959 ft | 321 kts | 104° |
| 2026-04-30 12:10 | 13.30037 | 77.71634 | 11233 ft | 333 kts | 104° |
| 2026-04-30 12:10 | 13.29423 | 77.73985 | 11586 ft | 348 kts | 103° |
| 2026-04-30 12:11 | 13.28802 | 77.76472 | 11953 ft | 361 kts | 103° |
| 2026-04-30 12:11 | 13.28193 | 77.78970 | 12421 ft | 369 kts | 103° |
| 2026-04-30 12:11 | 13.27573 | 77.81545 | 12950 ft | 375 kts | 103° |
| 2026-04-30 12:11 | 13.26949 | 77.84147 | 13483 ft | 380 kts | 102° |
| 2026-04-30 12:12 | 13.26315 | 77.86807 | 13977 ft | 384 kts | 102° |
| 2026-04-30 12:12 | 13.25678 | 77.89483 | 14454 ft | 388 kts | 102° |
| 2026-04-30 12:12 | 13.25033 | 77.92196 | 14924 ft | 392 kts | 102° |
| 2026-04-30 12:12 | 13.24384 | 77.94924 | 15416 ft | 396 kts | 102° |
| 2026-04-30 12:13 | 13.23727 | 77.97679 | 15903 ft | 399 kts | 102° |
| 2026-04-30 12:13 | 13.23063 | 78.00470 | 16413 ft | 403 kts | 102° |
| 2026-04-30 12:13 | 13.22395 | 78.03275 | 16911 ft | 407 kts | 102° |
| 2026-04-30 12:13 | 13.21722 | 78.06100 | 17421 ft | 410 kts | 102° |
| 2026-04-30 12:14 | 13.21041 | 78.08953 | 17901 ft | 413 kts | 103° |
| 2026-04-30 12:14 | 13.20352 | 78.11839 | 18341 ft | 416 kts | 103° |
| 2026-04-30 12:14 | 13.19662 | 78.14730 | 18761 ft | 420 kts | 103° |
| 2026-04-30 12:14 | 13.18964 | 78.17658 | 19128 ft | 424 kts | 103° |
| 2026-04-30 12:15 | 13.18261 | 78.20600 | 19501 ft | 428 kts | 103° |
| 2026-04-30 12:15 | 13.17562 | 78.23522 | 19880 ft | 431 kts | 103° |
| 2026-04-30 12:15 | 13.16836 | 78.26557 | 20301 ft | 434 kts | 103° |
| 2026-04-30 12:15 | 13.16112 | 78.29581 | 20704 ft | 437 kts | 103° |
| 2026-04-30 12:16 | 13.15379 | 78.32643 | 21117 ft | 440 kts | 103° |
| 2026-04-30 12:16 | 13.14644 | 78.35708 | 21522 ft | 443 kts | 104° |
| 2026-04-30 12:16 | 13.13919 | 78.38734 | 21924 ft | 447 kts | 104° |
| 2026-04-30 12:16 | 13.13168 | 78.41863 | 22331 ft | 450 kts | 104° |
| 2026-04-30 12:17 | 13.11657 | 78.48158 | 23125 ft | 457 kts | 104° |
| 2026-04-30 12:17 | 13.10896 | 78.51325 | 23513 ft | 460 kts | 104° |
| 2026-04-30 12:17 | 13.10124 | 78.54537 | 23825 ft | 464 kts | 104° |
| 2026-04-30 12:18 | 13.09354 | 78.57735 | 24151 ft | 466 kts | 104° |
| 2026-04-30 12:18 | 13.08570 | 78.60993 | 24494 ft | 469 kts | 104° |
| 2026-04-30 12:18 | 13.07784 | 78.64257 | 24833 ft | 472 kts | 104° |
| 2026-04-30 12:18 | 13.06994 | 78.67536 | 25216 ft | 475 kts | 104° |
| 2026-04-30 12:19 | 13.06198 | 78.70840 | 25603 ft | 478 kts | 104° |
| 2026-04-30 12:19 | 13.05396 | 78.74160 | 26001 ft | 481 kts | 104° |
| 2026-04-30 12:19 | 13.04590 | 78.77499 | 26402 ft | 484 kts | 104° |
| 2026-04-30 12:19 | 13.03777 | 78.80869 | 26820 ft | 488 kts | 104° |
| 2026-04-30 12:20 | 13.02961 | 78.84246 | 27235 ft | 491 kts | 104° |
| 2026-04-30 12:20 | 13.02134 | 78.87664 | 27645 ft | 494 kts | 104° |
| 2026-04-30 12:20 | 13.01304 | 78.91094 | 28051 ft | 498 kts | 104° |
| 2026-04-30 12:20 | 13.00469 | 78.94543 | 28437 ft | 501 kts | 104° |
| 2026-04-30 12:21 | 12.99626 | 78.98022 | 28825 ft | 505 kts | 104° |
| 2026-04-30 12:21 | 12.99064 | 79.00342 | 29073 ft | 507 kts | 104° |
| 2026-04-30 12:21 | 12.98209 | 79.03869 | 29444 ft | 510 kts | 104° |
| 2026-04-30 12:21 | 12.97367 | 79.07421 | 29818 ft | 514 kts | 102° |
| 2026-04-30 12:22 | 12.96892 | 79.11044 | 30113 ft | 516 kts | 91° |
| 2026-04-30 12:22 | 12.96824 | 79.14734 | 30418 ft | 518 kts | 89° |
| 2026-04-30 12:22 | 12.96879 | 79.18426 | 30716 ft | 521 kts | 88° |
| 2026-04-30 12:22 | 12.96984 | 79.22147 | 31024 ft | 523 kts | 87° |
| 2026-04-30 12:23 | 12.97101 | 79.25892 | 31302 ft | 526 kts | 87° |
| 2026-04-30 12:23 | 12.97209 | 79.29641 | 31579 ft | 528 kts | 87° |
| 2026-04-30 12:23 | 12.97303 | 79.33415 | 31848 ft | 530 kts | 88° |
| 2026-04-30 12:23 | 12.97387 | 79.37206 | 32106 ft | 533 kts | 88° |
| 2026-04-30 12:24 | 12.97463 | 79.41008 | 32451 ft | 532 kts | 88° |
| 2026-04-30 12:24 | 12.97534 | 79.44807 | 32846 ft | 531 kts | 88° |
| 2026-04-30 12:24 | 12.97603 | 79.48588 | 33226 ft | 531 kts | 88° |
| 2026-04-30 12:24 | 12.97671 | 79.52368 | 33600 ft | 530 kts | 88° |
| 2026-04-30 12:25 | 12.97739 | 79.56087 | 33950 ft | 529 kts | 88° |
| 2026-04-30 12:25 | 12.97807 | 79.59856 | 34317 ft | 527 kts | 88° |
| 2026-04-30 12:25 | 12.97875 | 79.63606 | 34695 ft | 525 kts | 87° |
| 2026-04-30 12:25 | 12.97942 | 79.67344 | 35069 ft | 523 kts | 87° |
| 2026-04-30 12:26 | 12.98009 | 79.71061 | 35426 ft | 521 kts | 87° |
| 2026-04-30 12:26 | 12.98075 | 79.74766 | 35778 ft | 519 kts | 87° |
| 2026-04-30 12:26 | 12.98140 | 79.78457 | 36119 ft | 517 kts | 87° |
| 2026-04-30 12:26 | 12.98204 | 79.82142 | 36470 ft | 516 kts | 87° |
| 2026-04-30 12:27 | 12.98268 | 79.85817 | 36801 ft | 514 kts | 87° |
| 2026-04-30 12:27 | 12.98331 | 79.89480 | 37141 ft | 513 kts | 87° |
| 2026-04-30 12:27 | 12.98394 | 79.93124 | 37476 ft | 511 kts | 87° |
| 2026-04-30 12:27 | 12.98455 | 79.96763 | 37802 ft | 509 kts | 86° |
| 2026-04-30 12:28 | 12.98515 | 80.00346 | 38120 ft | 508 kts | 86° |
| 2026-04-30 12:28 | 12.98576 | 80.03954 | 38429 ft | 506 kts | 86° |
| 2026-04-30 12:28 | 12.98635 | 80.07551 | 38688 ft | 504 kts | 86° |
| 2026-04-30 12:28 | 12.98694 | 80.11140 | 38924 ft | 503 kts | 86° |
| 2026-04-30 12:29 | 12.98720 | 80.14738 | 39145 ft | 503 kts | 89° |
| 2026-04-30 12:29 | 12.98501 | 80.18322 | 39377 ft | 503 kts | 92° |
| 2026-04-30 12:29 | 12.98211 | 80.21886 | 39591 ft | 502 kts | 92° |
| 2026-04-30 12:29 | 12.97897 | 80.25442 | 39809 ft | 501 kts | 93° |
| 2026-04-30 12:30 | 12.97568 | 80.29015 | 40018 ft | 500 kts | 93° |
| 2026-04-30 12:30 | 12.97240 | 80.32552 | 40222 ft | 499 kts | 93° |
| 2026-04-30 12:30 | 12.96913 | 80.36092 | 40420 ft | 498 kts | 93° |
| 2026-04-30 12:30 | 12.96588 | 80.39618 | 40616 ft | 497 kts | 93° |
| 2026-04-30 12:31 | 12.96266 | 80.43144 | 40744 ft | 497 kts | 93° |
| 2026-04-30 12:31 | 12.95943 | 80.46685 | 40770 ft | 497 kts | 93° |
| 2026-04-30 12:31 | 12.95306 | 80.53683 | 40779 ft | 496 kts | 93° |
| 2026-04-30 12:32 | 12.94663 | 80.60727 | 40775 ft | 496 kts | 93° |
| 2026-04-30 12:32 | 12.94017 | 80.67767 | 40784 ft | 497 kts | 93° |
| 2026-04-30 12:33 | 12.93369 | 80.74823 | 40783 ft | 497 kts | 93° |
| 2026-04-30 12:33 | 12.92718 | 80.81874 | 40785 ft | 497 kts | 93° |
| 2026-04-30 12:34 | 12.92065 | 80.88933 | 40789 ft | 497 kts | 93° |
| 2026-04-30 12:34 | 12.91409 | 80.95998 | 40794 ft | 497 kts | 93° |
| 2026-04-30 12:35 | 12.90753 | 81.03049 | 40799 ft | 498 kts | 93° |
| 2026-04-30 12:35 | 12.90094 | 81.10112 | 40796 ft | 498 kts | 93° |
| 2026-04-30 12:36 | 12.89431 | 81.17193 | 40800 ft | 498 kts | 93° |
| 2026-04-30 12:36 | 12.88771 | 81.24219 | 40801 ft | 499 kts | 93° |
| 2026-04-30 12:37 | 12.88104 | 81.31312 | 40803 ft | 499 kts | 93° |
| 2026-04-30 12:37 | 12.87436 | 81.38379 | 40802 ft | 499 kts | 93° |
| 2026-04-30 12:38 | 12.86763 | 81.45485 | 40803 ft | 500 kts | 93° |
| 2026-04-30 12:38 | 12.86090 | 81.52575 | 40807 ft | 500 kts | 93° |
| 2026-04-30 12:39 | 12.85413 | 81.59680 | 40805 ft | 501 kts | 93° |
| 2026-04-30 12:39 | 12.84734 | 81.66795 | 40812 ft | 501 kts | 93° |
| 2026-04-30 12:40 | 12.84053 | 81.73905 | 40807 ft | 502 kts | 93° |
| 2026-04-30 12:40 | 12.83369 | 81.81023 | 40821 ft | 502 kts | 93° |
| 2026-04-30 12:41 | 12.82682 | 81.88148 | 40817 ft | 503 kts | 93° |
| 2026-04-30 12:41 | 12.81992 | 81.95287 | 40813 ft | 503 kts | 93° |
| 2026-04-30 12:42 | 12.81305 | 82.02384 | 40813 ft | 504 kts | 93° |
| 2026-04-30 12:42 | 12.80609 | 82.09546 | 40819 ft | 505 kts | 93° |
| 2026-04-30 12:43 | 12.79912 | 82.16694 | 40822 ft | 505 kts | 93° |
| 2026-04-30 12:43 | 12.79212 | 82.23856 | 40821 ft | 505 kts | 93° |
| 2026-04-30 12:44 | 12.78509 | 82.31027 | 40820 ft | 505 kts | 93° |
| 2026-04-30 12:44 | 12.77806 | 82.38181 | 40823 ft | 505 kts | 93° |
| 2026-04-30 12:45 | 12.77099 | 82.45357 | 40823 ft | 506 kts | 93° |
| 2026-04-30 12:45 | 12.76391 | 82.52524 | 40827 ft | 506 kts | 93° |
| 2026-04-30 12:46 | 12.75680 | 82.59698 | 40830 ft | 506 kts | 93° |
| 2026-04-30 12:46 | 12.74971 | 82.66837 | 40826 ft | 507 kts | 93° |
| 2026-04-30 12:47 | 12.74251 | 82.74060 | 40827 ft | 507 kts | 93° |
| 2026-04-30 12:47 | 12.73531 | 82.81257 | 40829 ft | 507 kts | 93° |
| 2026-04-30 12:48 | 12.72816 | 82.88400 | 40832 ft | 508 kts | 94° |
| 2026-04-30 12:48 | 12.72092 | 82.95607 | 40830 ft | 508 kts | 94° |
| 2026-04-30 12:49 | 12.71367 | 83.02801 | 40832 ft | 508 kts | 94° |
| 2026-04-30 12:49 | 12.70638 | 83.10018 | 40830 ft | 508 kts | 94° |
| 2026-04-30 12:50 | 12.69909 | 83.17213 | 40833 ft | 509 kts | 94° |
| 2026-04-30 12:50 | 12.69175 | 83.24431 | 40833 ft | 509 kts | 94° |
| 2026-04-30 12:51 | 12.68441 | 83.31642 | 40837 ft | 509 kts | 94° |
| 2026-04-30 12:51 | 12.67704 | 83.38860 | 40841 ft | 509 kts | 94° |
| 2026-04-30 12:52 | 12.66966 | 83.46068 | 40838 ft | 509 kts | 94° |
| 2026-04-30 12:52 | 12.66133 | 83.53259 | 40846 ft | 510 kts | 99° |
| 2026-04-30 12:53 | 12.63832 | 83.60149 | 40843 ft | 512 kts | 114° |
| 2026-04-30 12:53 | 12.60763 | 83.66680 | 40838 ft | 513 kts | 116° |
| 2026-04-30 12:54 | 12.57570 | 83.73208 | 40843 ft | 513 kts | 116° |
| 2026-04-30 12:54 | 12.54385 | 83.79752 | 40839 ft | 513 kts | 115° |
| 2026-04-30 12:55 | 12.51217 | 83.86311 | 40839 ft | 513 kts | 115° |
| 2026-04-30 12:55 | 12.48061 | 83.92862 | 40843 ft | 513 kts | 115° |
| 2026-04-30 12:56 | 12.44901 | 83.99416 | 40843 ft | 514 kts | 115° |
| 2026-04-30 12:56 | 12.41752 | 84.05939 | 40845 ft | 514 kts | 115° |
| 2026-04-30 12:57 | 12.38586 | 84.12491 | 40849 ft | 514 kts | 115° |
| 2026-04-30 12:57 | 12.35419 | 84.19040 | 40846 ft | 513 kts | 115° |
| 2026-04-30 12:58 | 12.32257 | 84.25576 | 40852 ft | 513 kts | 115° |
| 2026-04-30 12:58 | 12.29088 | 84.32119 | 40855 ft | 512 kts | 115° |
| 2026-04-30 12:59 | 12.25925 | 84.38647 | 40847 ft | 512 kts | 115° |
| 2026-04-30 12:59 | 12.22761 | 84.45172 | 40851 ft | 512 kts | 116° |
| 2026-04-30 13:00 | 12.19617 | 84.51649 | 40851 ft | 512 kts | 116° |
| 2026-04-30 13:00 | 12.16450 | 84.58170 | 40852 ft | 511 kts | 116° |
| 2026-04-30 13:01 | 12.13281 | 84.64690 | 40857 ft | 511 kts | 116° |
| 2026-04-30 13:01 | 12.10118 | 84.71194 | 40855 ft | 511 kts | 116° |
| 2026-04-30 13:02 | 12.06952 | 84.77700 | 40858 ft | 511 kts | 116° |
| 2026-04-30 13:02 | 12.03811 | 84.84149 | 40854 ft | 510 kts | 116° |
| 2026-04-30 13:03 | 12.00646 | 84.90642 | 40854 ft | 510 kts | 116° |
| 2026-04-30 13:03 | 11.97483 | 84.97128 | 40856 ft | 510 kts | 116° |
| 2026-04-30 13:04 | 11.94323 | 85.03603 | 40859 ft | 510 kts | 116° |
| 2026-04-30 13:04 | 11.91147 | 85.10104 | 40861 ft | 510 kts | 116° |
| 2026-04-30 13:05 | 11.88005 | 85.16532 | 40854 ft | 510 kts | 116° |
| 2026-04-30 13:06 | 11.83255 | 85.26243 | 40861 ft | 510 kts | 116° |
| 2026-04-30 13:06 | 11.80074 | 85.32739 | 40856 ft | 510 kts | 116° |
| 2026-04-30 13:07 | 11.76918 | 85.39182 | 40861 ft | 510 kts | 116° |
| 2026-04-30 13:07 | 11.74266 | 85.44590 | 40864 ft | 510 kts | 116° |
| 2026-04-30 13:08 | 11.71086 | 85.51072 | 40860 ft | 511 kts | 116° |
| 2026-04-30 13:08 | 11.67902 | 85.57558 | 40870 ft | 511 kts | 116° |
| 2026-04-30 13:09 | 11.64713 | 85.64050 | 40871 ft | 511 kts | 117° |
| 2026-04-30 13:09 | 11.61524 | 85.70537 | 40867 ft | 511 kts | 117° |
| 2026-04-30 13:10 | 11.58328 | 85.77032 | 40865 ft | 512 kts | 117° |
| 2026-04-30 13:10 | 11.55150 | 85.83489 | 40867 ft | 512 kts | 117° |
| 2026-04-30 13:11 | 11.51955 | 85.89975 | 40869 ft | 512 kts | 117° |
| 2026-04-30 13:11 | 11.48759 | 85.96459 | 40870 ft | 512 kts | 117° |
| 2026-04-30 13:12 | 11.45555 | 86.02954 | 40868 ft | 512 kts | 117° |
| 2026-04-30 13:12 | 11.42354 | 86.09439 | 40870 ft | 512 kts | 117° |
| 2026-04-30 13:13 | 11.37545 | 86.19174 | 40871 ft | 513 kts | 117° |
| 2026-04-30 13:14 | 11.32752 | 86.28866 | 40874 ft | 513 kts | 117° |
| 2026-04-30 13:14 | 11.27929 | 86.38608 | 40873 ft | 513 kts | 117° |
| 2026-04-30 13:15 | 11.23109 | 86.48336 | 40877 ft | 513 kts | 117° |
| 2026-04-30 13:16 | 11.19893 | 86.54821 | 40880 ft | 513 kts | 117° |
| 2026-04-30 13:16 | 11.16673 | 86.61311 | 40876 ft | 513 kts | 117° |
| 2026-04-30 13:17 | 11.11867 | 86.70988 | 40881 ft | 512 kts | 117° |
| 2026-04-30 13:18 | 11.07039 | 86.80699 | 40878 ft | 512 kts | 117° |
| 2026-04-30 13:18 | 11.02211 | 86.90403 | 40885 ft | 512 kts | 117° |
| 2026-04-30 13:19 | 10.98991 | 86.96868 | 40883 ft | 512 kts | 117° |
| 2026-04-30 13:19 | 10.95776 | 87.03320 | 40884 ft | 511 kts | 117° |
| 2026-04-30 13:20 | 10.92559 | 87.09772 | 40886 ft | 511 kts | 117° |
| 2026-04-30 13:20 | 10.89336 | 87.16231 | 40885 ft | 511 kts | 117° |
| 2026-04-30 13:21 | 10.86137 | 87.22638 | 40888 ft | 511 kts | 117° |
| 2026-04-30 13:22 | 10.81308 | 87.32302 | 40887 ft | 510 kts | 117° |
| 2026-04-30 13:22 | 10.76486 | 87.41945 | 40889 ft | 510 kts | 117° |
| 2026-04-30 13:23 | 10.71663 | 87.51578 | 40887 ft | 509 kts | 117° |
| 2026-04-30 13:24 | 10.65232 | 87.64410 | 40892 ft | 509 kts | 117° |
| 2026-04-30 13:25 | 10.58795 | 87.77239 | 40892 ft | 508 kts | 117° |
| 2026-04-30 13:26 | 10.50778 | 87.93194 | 40890 ft | 508 kts | 117° |
| 2026-04-30 13:28 | 10.42738 | 88.09171 | 40898 ft | 507 kts | 117° |
| 2026-04-30 13:28 | 10.37939 | 88.18696 | 40900 ft | 507 kts | 117° |
| 2026-04-30 13:29 | 10.31514 | 88.31436 | 40898 ft | 506 kts | 117° |
| 2026-04-30 13:31 | 10.23491 | 88.47322 | 40902 ft | 505 kts | 117° |
| 2026-04-30 13:32 | 10.15816 | 88.63280 | 40902 ft | 504 kts | 115° |
| 2026-04-30 13:33 | 10.09974 | 88.76233 | 40905 ft | 504 kts | 115° |
| 2026-04-30 13:34 | 10.05533 | 88.85910 | 40908 ft | 504 kts | 115° |
| 2026-04-30 13:35 | 9.99611 | 88.98794 | 40905 ft | 503 kts | 115° |
| 2026-04-30 13:36 | 9.93698 | 89.11648 | 40901 ft | 502 kts | 115° |
| 2026-04-30 13:36 | 9.89264 | 89.21278 | 40907 ft | 502 kts | 115° |
| 2026-04-30 13:37 | 9.84832 | 89.30895 | 40910 ft | 501 kts | 115° |
| 2026-04-30 13:38 | 9.80419 | 89.40461 | 40914 ft | 501 kts | 115° |
| 2026-04-30 13:39 | 9.74512 | 89.53254 | 40908 ft | 500 kts | 115° |
| 2026-04-30 13:40 | 9.70094 | 89.62812 | 40908 ft | 500 kts | 116° |
| 2026-04-30 13:40 | 9.67144 | 89.69191 | 40908 ft | 500 kts | 116° |
| 2026-04-30 13:41 | 9.64182 | 89.75590 | 40907 ft | 500 kts | 116° |
| 2026-04-30 13:41 | 9.61228 | 89.81970 | 40910 ft | 499 kts | 116° |
| 2026-04-30 13:42 | 9.58280 | 89.88333 | 40912 ft | 499 kts | 116° |
| 2026-04-30 13:42 | 9.53869 | 89.97846 | 40913 ft | 499 kts | 116° |
| 2026-04-30 13:43 | 9.50917 | 90.04207 | 40914 ft | 499 kts | 116° |
| 2026-04-30 13:43 | 9.47960 | 90.10577 | 40913 ft | 499 kts | 116° |
| 2026-04-30 13:44 | 9.45007 | 90.16933 | 40917 ft | 498 kts | 116° |
| 2026-04-30 13:44 | 9.42061 | 90.23272 | 40917 ft | 498 kts | 116° |
| 2026-04-30 13:45 | 9.37629 | 90.32801 | 40915 ft | 498 kts | 116° |
| 2026-04-30 13:46 | 9.34695 | 90.39106 | 40917 ft | 498 kts | 116° |
| 2026-04-30 13:46 | 9.31741 | 90.45450 | 40916 ft | 498 kts | 116° |
| 2026-04-30 13:47 | 9.28789 | 90.51785 | 40917 ft | 497 kts | 116° |
| 2026-04-30 13:47 | 9.25838 | 90.58114 | 40918 ft | 497 kts | 116° |
| 2026-04-30 13:48 | 9.22892 | 90.64431 | 40918 ft | 496 kts | 116° |
| 2026-04-30 13:48 | 9.19941 | 90.70754 | 40914 ft | 496 kts | 116° |
| 2026-04-30 13:49 | 9.16993 | 90.77068 | 40917 ft | 495 kts | 116° |
| 2026-04-30 13:49 | 9.14049 | 90.83369 | 40917 ft | 495 kts | 116° |
| 2026-04-30 13:50 | 9.11107 | 90.89663 | 40915 ft | 495 kts | 116° |
| 2026-04-30 13:50 | 9.06712 | 90.99060 | 40917 ft | 494 kts | 116° |
| 2026-04-30 13:51 | 9.03771 | 91.05342 | 40919 ft | 494 kts | 116° |
| 2026-04-30 13:51 | 9.00835 | 91.11613 | 40918 ft | 493 kts | 116° |
| 2026-04-30 13:52 | 8.97892 | 91.17893 | 40918 ft | 493 kts | 116° |
| 2026-04-30 13:52 | 8.94954 | 91.24161 | 40920 ft | 492 kts | 116° |
| 2026-04-30 13:53 | 8.92038 | 91.30379 | 40917 ft | 492 kts | 116° |
| 2026-04-30 13:53 | 8.89581 | 91.35613 | 40915 ft | 492 kts | 116° |
| 2026-04-30 13:54 | 8.86172 | 91.42874 | 40920 ft | 492 kts | 116° |
| 2026-04-30 13:54 | 8.83238 | 91.49120 | 40916 ft | 492 kts | 116° |
| 2026-04-30 13:55 | 8.80299 | 91.55373 | 40918 ft | 492 kts | 116° |
| 2026-04-30 13:55 | 8.77359 | 91.61624 | 40917 ft | 492 kts | 116° |
| 2026-04-30 13:56 | 8.74921 | 91.66808 | 40916 ft | 492 kts | 116° |
| 2026-04-30 13:56 | 8.71977 | 91.73062 | 40919 ft | 492 kts | 116° |
| 2026-04-30 13:57 | 8.69035 | 91.79309 | 40918 ft | 492 kts | 116° |
| 2026-04-30 13:57 | 8.66094 | 91.85552 | 40916 ft | 492 kts | 116° |
| 2026-04-30 13:58 | 8.61693 | 91.94886 | 40915 ft | 492 kts | 116° |
| 2026-04-30 13:59 | 8.58737 | 92.01160 | 40913 ft | 492 kts | 116° |
| 2026-04-30 13:59 | 8.55913 | 92.07465 | 40919 ft | 492 kts | 114° |
| 2026-04-30 14:00 | 8.53167 | 92.13765 | 40916 ft | 493 kts | 114° |
| 2026-04-30 14:00 | 8.48977 | 92.23286 | 40917 ft | 492 kts | 115° |
| 2026-04-30 14:01 | 8.46196 | 92.29557 | 40911 ft | 492 kts | 115° |
| 2026-04-30 14:01 | 8.43393 | 92.35870 | 40924 ft | 491 kts | 115° |
| 2026-04-30 14:02 | 8.40595 | 92.42171 | 40914 ft | 491 kts | 115° |
| 2026-04-30 14:02 | 8.37801 | 92.48462 | 40913 ft | 490 kts | 115° |
| 2026-04-30 14:03 | 8.35011 | 92.54738 | 40924 ft | 489 kts | 115° |
| 2026-04-30 14:03 | 8.32220 | 92.61016 | 40914 ft | 489 kts | 115° |
| 2026-04-30 14:04 | 8.29455 | 92.67232 | 40912 ft | 489 kts | 115° |
| 2026-04-30 14:04 | 8.26672 | 92.73485 | 40912 ft | 488 kts | 115° |
| 2026-04-30 14:05 | 8.21098 | 92.86001 | 40927 ft | 488 kts | 115° |
| 2026-04-30 14:06 | 8.16921 | 92.95371 | 40930 ft | 487 kts | 115° |
| 2026-04-30 14:07 | 8.12744 | 93.04734 | 40909 ft | 487 kts | 115° |
| 2026-04-30 14:08 | 8.08568 | 93.14089 | 40909 ft | 487 kts | 115° |
| 2026-04-30 14:08 | 8.05268 | 93.21477 | 40927 ft | 487 kts | 115° |
| 2026-04-30 14:09 | 8.02479 | 93.27717 | 40907 ft | 487 kts | 115° |
| 2026-04-30 14:10 | 7.98300 | 93.37064 | 40924 ft | 487 kts | 115° |
| 2026-04-30 14:10 | 7.95508 | 93.43304 | 40922 ft | 487 kts | 115° |
| 2026-04-30 14:11 | 7.92721 | 93.49531 | 40907 ft | 487 kts | 115° |
| 2026-04-30 14:11 | 7.89943 | 93.55768 | 40909 ft | 487 kts | 115° |
| 2026-04-30 14:12 | 7.87181 | 93.61998 | 40924 ft | 486 kts | 115° |
| 2026-04-30 14:12 | 7.84420 | 93.68220 | 40920 ft | 485 kts | 115° |
| 2026-04-30 14:13 | 7.81661 | 93.74429 | 40921 ft | 485 kts | 115° |
| 2026-04-30 14:13 | 7.78904 | 93.80628 | 40907 ft | 485 kts | 115° |
| 2026-04-30 14:14 | 7.76146 | 93.86825 | 40908 ft | 484 kts | 115° |
| 2026-04-30 14:14 | 7.73403 | 93.92987 | 40922 ft | 484 kts | 115° |
| 2026-04-30 14:15 | 7.70647 | 93.99175 | 40924 ft | 483 kts | 115° |
| 2026-04-30 14:15 | 7.67893 | 94.05357 | 40909 ft | 483 kts | 115° |
| 2026-04-30 14:16 | 7.65134 | 94.11546 | 40922 ft | 483 kts | 115° |
| 2026-04-30 14:16 | 7.62382 | 94.17719 | 40917 ft | 482 kts | 115° |
| 2026-04-30 14:17 | 7.59631 | 94.23883 | 40919 ft | 482 kts | 115° |
| 2026-04-30 14:17 | 7.56882 | 94.30043 | 40914 ft | 482 kts | 115° |
| 2026-04-30 14:18 | 7.54149 | 94.36163 | 40919 ft | 482 kts | 115° |
| 2026-04-30 14:18 | 7.49982 | 94.45391 | 40919 ft | 481 kts | 116° |
| 2026-04-30 14:19 | 7.45528 | 94.54451 | 40915 ft | 481 kts | 117° |
| 2026-04-30 14:20 | 7.42555 | 94.60494 | 40916 ft | 481 kts | 117° |
| 2026-04-30 14:20 | 7.38134 | 94.69578 | 40921 ft | 481 kts | 117° |
| 2026-04-30 14:21 | 7.35196 | 94.75626 | 40920 ft | 481 kts | 117° |
| 2026-04-30 14:22 | 7.30787 | 94.84695 | 40917 ft | 480 kts | 117° |
| 2026-04-30 14:22 | 7.26393 | 94.93725 | 40917 ft | 480 kts | 117° |
| 2026-04-30 14:23 | 7.20515 | 95.05794 | 40913 ft | 480 kts | 117° |
| 2026-04-30 14:24 | 7.16101 | 95.14852 | 40915 ft | 480 kts | 117° |
| 2026-04-30 14:25 | 7.10214 | 95.26923 | 40918 ft | 480 kts | 117° |
| 2026-04-30 14:26 | 7.05801 | 95.35967 | 40918 ft | 480 kts | 117° |
| 2026-04-30 14:27 | 7.01386 | 95.45008 | 40919 ft | 480 kts | 117° |
| 2026-04-30 14:27 | 6.98443 | 95.51033 | 40920 ft | 480 kts | 117° |
| 2026-04-30 14:28 | 6.94037 | 95.60046 | 40919 ft | 480 kts | 117° |
| 2026-04-30 14:28 | 6.91089 | 95.66076 | 40918 ft | 480 kts | 117° |
| 2026-04-30 14:29 | 6.85689 | 95.77113 | 40921 ft | 480 kts | 117° |
| 2026-04-30 14:31 | 6.77814 | 95.93194 | 40917 ft | 480 kts | 117° |
| 2026-04-30 14:31 | 6.73398 | 96.02220 | 40919 ft | 480 kts | 117° |
| 2026-04-30 14:32 | 6.68971 | 96.11245 | 40920 ft | 479 kts | 117° |
| 2026-04-30 14:33 | 6.66041 | 96.17216 | 40918 ft | 479 kts | 117° |
| 2026-04-30 14:33 | 6.61620 | 96.26228 | 40916 ft | 478 kts | 117° |
| 2026-04-30 14:34 | 6.58675 | 96.32230 | 40921 ft | 478 kts | 117° |
| 2026-04-30 14:34 | 6.55732 | 96.38226 | 40918 ft | 477 kts | 117° |
| 2026-04-30 14:35 | 6.51327 | 96.47215 | 40920 ft | 477 kts | 116° |
| 2026-04-30 14:36 | 6.49088 | 96.53497 | 40922 ft | 477 kts | 108° |
| 2026-04-30 14:36 | 6.47199 | 96.59856 | 40924 ft | 477 kts | 107° |
| 2026-04-30 14:37 | 6.45346 | 96.66269 | 40922 ft | 477 kts | 107° |
| 2026-04-30 14:37 | 6.43486 | 96.72664 | 40921 ft | 477 kts | 107° |
| 2026-04-30 14:38 | 6.41612 | 96.79066 | 40920 ft | 476 kts | 107° |
| 2026-04-30 14:38 | 6.39736 | 96.85458 | 40923 ft | 476 kts | 107° |
| 2026-04-30 14:39 | 6.37858 | 96.91850 | 40922 ft | 476 kts | 107° |
| 2026-04-30 14:39 | 6.35994 | 96.98198 | 40923 ft | 476 kts | 107° |
| 2026-04-30 14:40 | 6.33179 | 97.07774 | 40920 ft | 476 kts | 107° |
| 2026-04-30 14:40 | 6.31303 | 97.14156 | 40918 ft | 476 kts | 107° |
| 2026-04-30 14:41 | 6.29732 | 97.19495 | 40922 ft | 475 kts | 107° |
| 2026-04-30 14:41 | 6.27868 | 97.25827 | 40917 ft | 475 kts | 107° |
| 2026-04-30 14:42 | 6.25992 | 97.32196 | 40923 ft | 475 kts | 107° |
| 2026-04-30 14:42 | 6.24117 | 97.38559 | 40921 ft | 475 kts | 107° |
| 2026-04-30 14:43 | 6.22239 | 97.44931 | 40918 ft | 474 kts | 107° |
| 2026-04-30 14:43 | 6.20366 | 97.51282 | 40918 ft | 474 kts | 107° |
| 2026-04-30 14:44 | 6.18158 | 97.57502 | 40918 ft | 472 kts | 117° |
| 2026-04-30 14:44 | 6.14488 | 97.62929 | 40916 ft | 470 kts | 129° |
| 2026-04-30 14:45 | 6.10266 | 97.67898 | 40922 ft | 471 kts | 131° |
| 2026-04-30 14:45 | 6.05912 | 97.72874 | 40922 ft | 470 kts | 131° |
| 2026-04-30 14:46 | 6.01633 | 97.77793 | 40916 ft | 470 kts | 131° |
| 2026-04-30 14:46 | 5.97345 | 97.82753 | 40918 ft | 470 kts | 131° |
| 2026-04-30 14:47 | 5.93070 | 97.87710 | 40918 ft | 469 kts | 131° |
| 2026-04-30 14:47 | 5.88794 | 97.92666 | 40918 ft | 469 kts | 131° |
| 2026-04-30 14:48 | 5.84522 | 97.97615 | 40919 ft | 468 kts | 131° |
| 2026-04-30 14:48 | 5.80256 | 98.02555 | 40921 ft | 468 kts | 131° |
| 2026-04-30 14:49 | 5.75995 | 98.07488 | 40921 ft | 467 kts | 131° |
| 2026-04-30 14:49 | 5.71741 | 98.12411 | 40922 ft | 467 kts | 131° |
| 2026-04-30 14:50 | 5.65350 | 98.19805 | 40920 ft | 467 kts | 131° |
| 2026-04-30 14:51 | 5.58972 | 98.27182 | 40917 ft | 466 kts | 131° |
| 2026-04-30 14:52 | 5.52600 | 98.34549 | 40917 ft | 466 kts | 131° |
| 2026-04-30 14:52 | 5.46229 | 98.41913 | 40921 ft | 465 kts | 131° |
| 2026-04-30 14:53 | 5.39901 | 98.49224 | 40919 ft | 465 kts | 131° |
| 2026-04-30 14:54 | 5.31413 | 98.59027 | 40924 ft | 465 kts | 131° |
| 2026-04-30 14:55 | 5.25042 | 98.66382 | 40920 ft | 465 kts | 131° |
| 2026-04-30 14:56 | 5.16549 | 98.76183 | 40918 ft | 465 kts | 131° |
| 2026-04-30 14:57 | 5.10166 | 98.83545 | 40916 ft | 466 kts | 131° |
| 2026-04-30 14:58 | 5.01656 | 98.93357 | 40926 ft | 466 kts | 131° |
| 2026-04-30 14:58 | 4.95294 | 99.00690 | 40919 ft | 466 kts | 131° |
| 2026-04-30 15:00 | 4.84647 | 99.12957 | 40923 ft | 466 kts | 131° |
| 2026-04-30 15:01 | 4.76124 | 99.22773 | 40923 ft | 466 kts | 131° |
| 2026-04-30 15:01 | 4.69734 | 99.30129 | 40927 ft | 466 kts | 131° |
| 2026-04-30 15:02 | 4.65466 | 99.35041 | 40925 ft | 467 kts | 131° |
| 2026-04-30 15:03 | 4.54822 | 99.47285 | 40924 ft | 468 kts | 131° |
| 2026-04-30 15:04 | 4.44092 | 99.59583 | 40932 ft | 468 kts | 131° |
| 2026-04-30 15:06 | 4.33337 | 99.71839 | 40936 ft | 469 kts | 131° |
| 2026-04-30 15:07 | 4.24717 | 99.81595 | 40944 ft | 469 kts | 131° |
| 2026-04-30 15:08 | 4.16037 | 99.91361 | 40954 ft | 469 kts | 131° |
| 2026-04-30 15:09 | 4.05150 | 100.03524 | 40961 ft | 469 kts | 131° |
| 2026-04-30 15:10 | 3.96409 | 100.13221 | 40974 ft | 469 kts | 131° |
| 2026-04-30 15:11 | 3.83266 | 100.27670 | 40995 ft | 469 kts | 132° |
| 2026-04-30 15:13 | 3.72215 | 100.39673 | 41015 ft | 469 kts | 132° |
| 2026-04-30 15:14 | 3.56621 | 100.56366 | 41041 ft | 469 kts | 133° |
| 2026-04-30 15:17 | 3.38378 | 100.79005 | 40928 ft | 468 kts | 133° |
| 2026-04-30 15:19 | 3.20132 | 100.97757 | 40928 ft | 471 kts | 132° |